createdAt,value
2023-03-04T00:01:21.704Z,102389.56
2023-03-04T00:03:49.565Z,102381.19
2023-03-04T00:06:18.785Z,102386.81
2023-03-04T00:08:46.612Z,102392.06
2023-03-04T00:11:14.487Z,102386.56
2023-03-04T00:13:42.351Z,102384.00
2023-03-04T00:16:10.209Z,102385.03
2023-03-04T00:18:38.059Z,102393.22
2023-03-04T00:21:06.353Z,102389.47
2023-03-04T00:23:35.545Z,102387.75
2023-03-04T00:26:03.415Z,102388.78
2023-03-04T00:28:31.140Z,102391.41
2023-03-04T00:30:58.975Z,102392.13
2023-03-04T00:33:26.748Z,102388.50
2023-03-04T00:35:54.519Z,102390.34
2023-03-04T00:38:22.295Z,102386.94
2023-03-04T00:40:51.722Z,102380.06
2023-03-04T00:43:19.916Z,102375.84
2023-03-04T00:45:47.841Z,102381.47
2023-03-04T00:48:16.429Z,102377.56
2023-03-04T00:50:44.933Z,102371.41
2023-03-04T00:53:12.843Z,102365.34
2023-03-04T00:55:40.641Z,102375.13
2023-03-04T00:58:10.016Z,102365.00
2023-03-04T01:00:37.880Z,102362.53
2023-03-04T01:03:05.696Z,102369.53
2023-03-04T01:05:35.879Z,102365.06
2023-03-04T01:08:03.741Z,102367.09
2023-03-04T01:10:31.664Z,102365.22
2023-03-04T01:12:59.935Z,102359.09
2023-03-04T01:15:29.700Z,102354.94
2023-03-04T01:17:58.094Z,102365.16
2023-03-04T01:20:26.348Z,102361.56
2023-03-04T01:22:54.146Z,102364.34
2023-03-04T01:25:22.118Z,102351.72
2023-03-04T01:27:50.012Z,102356.06
2023-03-04T01:30:21.111Z,102349.59
2023-03-04T01:32:50.413Z,102351.34
2023-03-04T01:35:18.317Z,102342.28
2023-03-04T01:37:46.099Z,102339.75
2023-03-04T01:40:15.079Z,102345.69
2023-03-04T01:42:43.042Z,102336.34
2023-03-04T01:45:15.488Z,102341.69
2023-03-04T01:47:48.448Z,102338.19
2023-03-04T01:50:24.718Z,102336.19
2023-03-04T01:52:52.600Z,102338.66
2023-03-04T01:55:23.407Z,102343.94
2023-03-04T01:57:53.282Z,102341.41
2023-03-04T02:00:28.350Z,102343.19
2023-03-04T02:03:00.168Z,102342.25
2023-03-04T02:05:30.476Z,102336.78
2023-03-04T02:08:01.908Z,102339.22
2023-03-04T02:10:29.679Z,102331.88
2023-03-04T02:12:57.721Z,102325.81
2023-03-04T02:15:25.894Z,102323.94
2023-03-04T02:17:53.725Z,102324.56
2023-03-04T02:20:35.554Z,102322.91
2023-03-04T02:23:10.744Z,102331.94
2023-03-04T02:25:44.562Z,102330.16
2023-03-04T02:28:13.929Z,102328.50
2023-03-04T02:30:42.587Z,102328.22
2023-03-04T02:33:16.855Z,102322.94
2023-03-04T02:35:44.876Z,102319.91
2023-03-04T02:38:13.522Z,102313.50
2023-03-04T02:40:45.019Z,102311.31
2023-03-04T02:43:14.317Z,102312.16
2023-03-04T02:45:44.976Z,102306.38
2023-03-04T02:48:14.526Z,102305.84
2023-03-04T02:50:47.328Z,102301.28
2023-03-04T02:53:15.349Z,102298.69
2023-03-04T02:55:43.805Z,102306.38
2023-03-04T02:58:14.978Z,102307.34
2023-03-04T03:00:43.702Z,102303.75
2023-03-04T03:03:12.421Z,102301.50
2023-03-04T03:05:40.908Z,102298.19
2023-03-04T03:08:09.586Z,102291.97
2023-03-04T03:10:37.696Z,102300.81
2023-03-04T03:13:07.745Z,102296.38
2023-03-04T03:15:42.068Z,102292.31
2023-03-04T03:18:10.922Z,102286.91
2023-03-04T03:20:39.076Z,102292.31
2023-03-04T03:23:06.953Z,102289.84
2023-03-04T03:25:34.839Z,102292.19
2023-03-04T03:28:02.675Z,102288.50
2023-03-04T03:30:30.523Z,102284.31
2023-03-04T03:32:59.734Z,102277.44
2023-03-04T03:35:28.393Z,102282.38
2023-03-04T03:37:56.296Z,102282.34
2023-03-04T03:40:24.181Z,102274.16
2023-03-04T03:42:51.977Z,102273.09
2023-03-04T03:45:19.814Z,102272.50
2023-03-04T03:47:47.572Z,102271.63
2023-03-04T03:50:17.414Z,102272.06
2023-03-04T03:52:45.260Z,102276.03
2023-03-04T03:55:14.235Z,102272.25
2023-03-04T03:57:42.292Z,102275.25
2023-03-04T04:00:11.902Z,102272.31
2023-03-04T04:02:43.196Z,102282.16
2023-03-04T04:05:11.848Z,102279.94
2023-03-04T04:07:41.778Z,102272.31
2023-03-04T04:10:11.700Z,102278.53
2023-03-04T04:12:39.812Z,102279.31
2023-03-04T04:15:09.484Z,102276.13
2023-03-04T04:17:37.311Z,102263.53
2023-03-04T04:20:05.973Z,102264.47
2023-03-04T04:22:33.754Z,102274.94
2023-03-04T04:25:03.262Z,102275.63
2023-03-04T04:27:31.067Z,102275.19
2023-03-04T04:29:59.379Z,102277.38
2023-03-04T04:32:27.385Z,102270.56
2023-03-04T04:34:55.247Z,102274.41
2023-03-04T04:37:23.104Z,102265.47
2023-03-04T04:39:51.838Z,102269.94
2023-03-04T04:42:21.210Z,102272.91
2023-03-04T04:44:49.004Z,102264.84
2023-03-04T04:47:16.873Z,102274.69
2023-03-04T04:49:44.949Z,102288.66
2023-03-04T04:52:12.877Z,102280.56
2023-03-04T04:54:41.417Z,102282.28
2023-03-04T04:57:09.249Z,102282.56
2023-03-04T04:59:38.402Z,102285.31
2023-03-04T05:02:06.167Z,102277.78
2023-03-04T05:04:33.918Z,102288.88
2023-03-04T05:07:02.108Z,102286.41
2023-03-04T05:09:29.923Z,102286.03
2023-03-04T05:11:57.787Z,102291.34
2023-03-04T05:14:25.645Z,102295.81
2023-03-04T05:16:54.942Z,102292.72
2023-03-04T05:19:22.784Z,102293.69
2023-03-04T05:21:50.609Z,102282.00
2023-03-04T05:24:18.948Z,102282.00
2023-03-04T05:26:46.891Z,102280.19
2023-03-04T05:29:14.959Z,102285.97
2023-03-04T05:31:42.692Z,102277.38
2023-03-04T05:34:12.155Z,102276.19
2023-03-04T05:36:39.900Z,102275.69
2023-03-04T05:39:07.757Z,102280.09
2023-03-04T05:41:35.643Z,102275.34
2023-03-04T05:44:03.612Z,102273.44
2023-03-04T05:46:33.543Z,102286.03
2023-03-04T05:49:01.753Z,102285.88
2023-03-04T05:51:30.964Z,102281.22
2023-03-04T05:53:58.896Z,102279.88
2023-03-04T05:56:26.860Z,102289.72
2023-03-04T05:58:58.110Z,102285.78
2023-03-04T06:01:26.177Z,102285.72
2023-03-04T06:03:54.131Z,102283.16
2023-03-04T06:06:22.095Z,102285.00
2023-03-04T06:08:51.341Z,102282.16
2023-03-04T06:11:19.335Z,102290.13
2023-03-04T06:13:47.348Z,102292.88
2023-03-04T06:16:15.279Z,102294.63
2023-03-04T06:18:43.034Z,102292.75
2023-03-04T06:21:10.782Z,102293.75
2023-03-04T06:23:38.670Z,102300.13
2023-03-04T06:26:10.075Z,102297.59
2023-03-04T06:28:37.967Z,102296.28
2023-03-04T06:31:06.675Z,102304.38
2023-03-04T06:33:34.839Z,102300.59
2023-03-04T06:36:02.965Z,102304.22
2023-03-04T06:38:30.840Z,102311.63
2023-03-04T06:40:58.668Z,102311.16
2023-03-04T06:43:27.968Z,102308.09
2023-03-04T06:45:55.838Z,102314.97
2023-03-04T06:48:23.816Z,102317.69
2023-03-04T06:50:51.610Z,102324.00
2023-03-04T06:53:19.461Z,102322.44
2023-03-04T06:55:48.063Z,102322.69
2023-03-04T06:58:17.452Z,102322.47
2023-03-04T07:00:46.857Z,102327.28
2023-03-04T07:03:14.861Z,102336.78
2023-03-04T07:05:44.224Z,102321.38
2023-03-04T07:08:12.695Z,102324.34
2023-03-04T07:10:40.892Z,102331.00
2023-03-04T07:13:08.941Z,102334.16
2023-03-04T07:15:37.335Z,102335.78
2023-03-04T07:18:06.612Z,102333.69
2023-03-04T07:20:34.518Z,102334.47
2023-03-04T07:23:02.302Z,102329.38
2023-03-04T07:25:30.342Z,102341.63
2023-03-04T07:27:58.034Z,102342.47
2023-03-04T07:30:25.839Z,102347.41
2023-03-04T07:32:54.364Z,102340.97
2023-03-04T07:35:23.675Z,102355.63
2023-03-04T07:37:51.612Z,102354.06
2023-03-04T07:40:19.888Z,102357.31
2023-03-04T07:42:51.180Z,102354.94
2023-03-04T07:45:19.231Z,102357.56
2023-03-04T07:47:47.459Z,102348.25
2023-03-04T07:50:17.901Z,102352.81
2023-03-04T07:52:50.947Z,102353.19
2023-03-04T07:55:19.353Z,102361.75
2023-03-04T07:57:49.178Z,102351.03
2023-03-04T08:00:18.622Z,102351.91
2023-03-04T08:02:46.589Z,102359.03
2023-03-04T08:05:14.616Z,102357.63
2023-03-04T08:07:42.696Z,102362.03
2023-03-04T08:10:13.184Z,102362.09
2023-03-04T08:12:41.047Z,102361.56
2023-03-04T08:15:10.233Z,102362.13
2023-03-04T08:17:38.182Z,102368.22
2023-03-04T08:20:06.958Z,102359.41
2023-03-04T08:22:34.809Z,102367.66
2023-03-04T08:25:02.629Z,102365.75
2023-03-04T08:27:32.088Z,102364.75
2023-03-04T08:29:59.883Z,102377.91
2023-03-04T08:32:28.338Z,102368.41
2023-03-04T08:34:57.051Z,102366.59
2023-03-04T08:37:25.105Z,102372.06
2023-03-04T08:39:53.039Z,102371.34
2023-03-04T08:42:21.112Z,102370.81
2023-03-04T08:44:50.436Z,102367.38
2023-03-04T08:47:18.417Z,102364.91
2023-03-04T08:49:46.554Z,102375.72
2023-03-04T08:52:14.413Z,102369.28
2023-03-04T08:54:42.235Z,102376.22
2023-03-04T08:57:10.264Z,102379.63
2023-03-04T08:59:38.646Z,102389.59
2023-03-04T09:02:08.228Z,102388.59
2023-03-04T09:04:36.663Z,102385.75
2023-03-04T09:07:04.802Z,102397.34
2023-03-04T09:09:32.825Z,102406.34
2023-03-04T09:12:00.807Z,102398.06
2023-03-04T09:14:28.700Z,102403.91
2023-03-04T09:16:56.523Z,102397.34
2023-03-04T09:19:27.708Z,102394.00
2023-03-04T09:21:56.726Z,102396.97
2023-03-04T09:24:24.579Z,102395.97
2023-03-04T09:26:52.782Z,102395.16
2023-03-04T09:29:20.868Z,102389.69
2023-03-04T09:31:48.803Z,102396.88
2023-03-04T09:34:17.173Z,102396.38
2023-03-04T09:36:46.469Z,102389.59
2023-03-04T09:39:14.349Z,102386.53
2023-03-04T09:41:44.764Z,102384.88
2023-03-04T09:44:24.438Z,102380.03
2023-03-04T09:46:54.112Z,102384.78
2023-03-04T09:49:23.305Z,102377.97
2023-03-04T09:52:02.132Z,102383.16
2023-03-04T09:54:49.382Z,102373.41
2023-03-04T09:57:25.115Z,102374.81
2023-03-04T10:00:06.031Z,102369.38
2023-03-04T10:02:47.158Z,102372.00
2023-03-04T10:05:19.773Z,102366.66
2023-03-04T10:07:54.652Z,102355.13
2023-03-04T10:10:27.649Z,102351.53
2023-03-04T10:12:58.521Z,102358.09
2023-03-04T10:15:35.250Z,102354.09
2023-03-04T10:18:13.583Z,102345.03
2023-03-04T10:20:52.976Z,102348.84
2023-03-04T10:23:25.765Z,102344.38
2023-03-04T10:25:54.945Z,102342.16
2023-03-04T10:28:27.078Z,102341.53
2023-03-04T10:31:01.263Z,102340.38
2023-03-04T10:33:32.054Z,102344.47
2023-03-04T10:36:03.776Z,102337.47
2023-03-04T10:38:36.844Z,102346.59
2023-03-04T10:41:13.863Z,102342.94
2023-03-04T10:43:44.108Z,102342.88
2023-03-04T10:46:12.552Z,102339.28
2023-03-04T10:48:43.424Z,102336.03
2023-03-04T10:51:15.036Z,102336.59
2023-03-04T10:53:44.921Z,102342.50
2023-03-04T10:56:34.811Z,102346.22
2023-03-04T10:59:40.737Z,102344.44
2023-03-04T11:02:18.285Z,102342.19
2023-03-04T11:04:53.559Z,102338.88
2023-03-04T11:07:23.502Z,102329.91
2023-03-04T11:09:53.653Z,102324.94
2023-03-04T11:12:35.225Z,102326.94
2023-03-04T11:15:04.523Z,102317.66
2023-03-04T11:17:45.299Z,102316.63
2023-03-04T11:20:18.981Z,102312.88
2023-03-04T11:22:48.098Z,102306.09
2023-03-04T11:25:27.654Z,102297.94
2023-03-04T11:27:58.881Z,102299.47
2023-03-04T11:30:44.593Z,102300.31
2023-03-04T11:33:22.299Z,102299.44
2023-03-04T11:36:00.585Z,102291.72
2023-03-04T11:38:33.882Z,102284.41
2023-03-04T11:41:06.505Z,102283.50
2023-03-04T11:43:41.009Z,102280.28
2023-03-04T11:46:43.849Z,102284.41
2023-03-04T11:49:50.117Z,102278.53
2023-03-04T11:52:31.137Z,102272.34
2023-03-04T11:55:13.977Z,102264.16
2023-03-04T11:57:54.585Z,102260.53
2023-03-04T12:00:37.115Z,102250.03
2023-03-04T12:03:30.950Z,102255.91
2023-03-04T12:06:07.596Z,102250.50
2023-03-04T12:08:55.646Z,102261.63
2023-03-04T12:11:35.071Z,102251.97
2023-03-04T12:14:20.970Z,102250.38
2023-03-04T12:17:35.141Z,102249.03
2023-03-04T12:20:37.173Z,102240.84
2023-03-04T12:23:19.296Z,102246.91
2023-03-04T12:25:57.990Z,102230.81
2023-03-04T12:28:43.967Z,102240.44
2023-03-04T12:31:30.736Z,102239.09
2023-03-04T12:34:15.233Z,102239.81
2023-03-04T12:36:53.164Z,102239.66
2023-03-04T12:39:31.015Z,102232.13
2023-03-04T12:42:08.471Z,102229.22
2023-03-04T12:44:44.532Z,102235.19
2023-03-04T12:47:30.098Z,102252.63
2023-03-04T12:50:21.107Z,102256.06
2023-03-04T12:53:00.865Z,102266.31
2023-03-04T12:55:38.120Z,102263.25
2023-03-04T12:58:07.991Z,102278.84
2023-03-04T13:00:47.970Z,102281.81
2023-03-04T13:03:22.934Z,102289.50
2023-03-04T13:06:07.882Z,102288.28
2023-03-04T13:08:47.737Z,102293.56
2023-03-04T13:11:47.225Z,102296.16
2023-03-04T13:14:33.176Z,102302.38
2023-03-04T13:17:03.555Z,102307.66
2023-03-04T13:19:48.446Z,102312.50
2023-03-04T13:22:30.970Z,102318.88
2023-03-04T13:25:00.151Z,102325.00
2023-03-04T13:27:49.254Z,102302.66
2023-03-04T13:30:42.355Z,102285.34
2023-03-04T13:33:45.787Z,102277.53
2023-03-04T13:37:00.228Z,102288.16
2023-03-04T13:39:33.279Z,102273.38
2023-03-04T13:42:02.288Z,102267.16
2023-03-04T13:45:05.912Z,102255.72
2023-03-04T13:47:49.748Z,102259.63
2023-03-04T13:50:40.160Z,102252.63
2023-03-04T13:53:41.104Z,102247.84
2023-03-04T13:56:32.401Z,102236.19
2023-03-04T13:59:28.545Z,102240.34
2023-03-04T14:02:00.155Z,102226.41
2023-03-04T14:04:32.071Z,102218.22
2023-03-04T14:07:02.156Z,102214.03
2023-03-04T14:09:32.060Z,102215.13
2023-03-04T14:12:05.363Z,102208.44
2023-03-04T14:14:44.733Z,102214.31
2023-03-04T14:17:20.785Z,102205.22
2023-03-04T14:19:52.503Z,102201.59
2023-03-04T14:22:25.968Z,102208.09
2023-03-04T14:24:59.880Z,102206.94
2023-03-04T14:27:30.639Z,102209.94
2023-03-04T14:29:59.916Z,102210.44
2023-03-04T14:32:30.374Z,102218.84
2023-03-04T14:35:03.822Z,102209.44
2023-03-04T14:37:39.348Z,102208.47
2023-03-04T14:40:09.152Z,102197.88
2023-03-04T14:42:47.201Z,102197.78
2023-03-04T14:45:18.583Z,102191.34
2023-03-04T14:47:48.691Z,102171.66
2023-03-04T14:50:19.248Z,102172.53
2023-03-04T14:52:51.609Z,102170.25
2023-03-04T14:55:23.276Z,102171.81
2023-03-04T14:57:58.726Z,102162.66
2023-03-04T15:00:31.378Z,102169.84
2023-03-04T15:03:01.193Z,102167.97
2023-03-04T15:05:31.599Z,102168.81
2023-03-04T15:08:01.614Z,102169.81
2023-03-04T15:10:32.024Z,102169.06
2023-03-04T15:13:03.977Z,102167.44
2023-03-04T15:15:39.902Z,102165.81
2023-03-04T15:18:22.938Z,102173.03
2023-03-04T15:20:56.150Z,102175.38
2023-03-04T15:23:24.086Z,102170.63
2023-03-04T15:25:54.599Z,102164.81
2023-03-04T15:28:24.782Z,102158.09
2023-03-04T15:30:53.157Z,102159.59
2023-03-04T15:33:21.418Z,102141.19
2023-03-04T15:35:54.510Z,102144.44
2023-03-04T15:38:22.631Z,102142.03
2023-03-04T15:40:53.282Z,102142.53
2023-03-04T15:43:24.541Z,102124.75
2023-03-04T15:45:54.406Z,102128.75
2023-03-04T15:48:22.669Z,102125.69
2023-03-04T15:50:55.281Z,102120.16
2023-03-04T15:53:29.682Z,102115.34
2023-03-04T15:55:57.646Z,102117.22
2023-03-04T15:58:28.164Z,102109.00
2023-03-04T16:00:56.265Z,102107.88
2023-03-04T16:03:24.127Z,102104.75
2023-03-04T16:05:53.465Z,102101.97
2023-03-04T16:08:24.871Z,102100.97
2023-03-04T16:10:53.304Z,102100.28
2023-03-04T16:13:23.920Z,102094.59
2023-03-04T16:15:53.434Z,102089.22
2023-03-04T16:18:21.729Z,102092.63
2023-03-04T16:20:50.938Z,102089.31
2023-03-04T16:23:22.275Z,102086.84
2023-03-04T16:25:53.758Z,102087.06
2023-03-04T16:28:21.656Z,102088.31
2023-03-04T16:30:50.199Z,102086.47
2023-03-04T16:33:19.413Z,102084.13
2023-03-04T16:35:47.703Z,102083.09
2023-03-04T16:38:23.203Z,102086.38
2023-03-04T16:40:51.008Z,102079.47
2023-03-04T16:43:18.799Z,102075.50
2023-03-04T16:45:46.743Z,102078.56
2023-03-04T16:48:14.497Z,102085.84
2023-03-04T16:50:44.832Z,102087.75
2023-03-04T16:53:30.512Z,102088.09
2023-03-04T16:55:59.581Z,102072.91
2023-03-04T16:58:27.679Z,102074.88
2023-03-04T17:00:56.126Z,102072.03
2023-03-04T17:03:24.292Z,102073.38
2023-03-04T17:05:53.572Z,102070.50
2023-03-04T17:08:21.477Z,102065.19
2023-03-04T17:10:50.494Z,102068.78
2023-03-04T17:13:18.335Z,102073.47
2023-03-04T17:15:46.959Z,102068.56
2023-03-04T17:18:15.147Z,102063.28
2023-03-04T17:20:43.032Z,102058.97
2023-03-04T17:23:12.222Z,102064.22
2023-03-04T17:25:40.141Z,102062.06
2023-03-04T17:28:07.990Z,102074.16
2023-03-04T17:30:35.795Z,102065.53
2023-03-04T17:33:03.671Z,102073.53
2023-03-04T17:35:31.486Z,102075.56
2023-03-04T17:37:59.992Z,102075.13
2023-03-04T17:40:29.813Z,102076.31
2023-03-04T17:42:57.637Z,102083.00
2023-03-04T17:45:25.386Z,102089.38
2023-03-04T17:47:53.132Z,102087.75
2023-03-04T17:50:21.407Z,102088.47
2023-03-04T17:52:49.223Z,102087.22
2023-03-04T17:55:17.048Z,102091.59
2023-03-04T17:57:46.449Z,102088.09
2023-03-04T18:00:15.588Z,102095.28
2023-03-04T18:02:43.515Z,102089.31
2023-03-04T18:05:11.602Z,102088.03
2023-03-04T18:07:39.514Z,102082.16
2023-03-04T18:10:08.559Z,102081.75
2023-03-04T18:12:36.351Z,102085.50
2023-03-04T18:15:06.645Z,102084.44
2023-03-04T18:17:34.453Z,102085.63
2023-03-04T18:20:02.782Z,102087.75
2023-03-04T18:22:31.718Z,102085.34
2023-03-04T18:24:59.459Z,102079.56
2023-03-04T18:27:27.971Z,102080.72
2023-03-04T18:29:56.416Z,102082.56
2023-03-04T18:32:25.908Z,102084.59
2023-03-04T18:34:53.904Z,102081.44
2023-03-04T18:37:21.981Z,102076.69
2023-03-04T18:39:49.865Z,102075.13
2023-03-04T18:42:18.046Z,102082.38
2023-03-04T18:44:45.906Z,102066.81
2023-03-04T18:47:14.335Z,102077.19
2023-03-04T18:49:45.406Z,102072.28
2023-03-04T18:52:13.380Z,102069.13
2023-03-04T18:54:41.414Z,102070.41
2023-03-04T18:57:11.462Z,102069.56
2023-03-04T18:59:44.260Z,102078.22
2023-03-04T19:02:18.585Z,102081.25
2023-03-04T19:04:48.854Z,102075.66
2023-03-04T19:07:16.998Z,102079.06
2023-03-04T19:09:44.928Z,102088.38
2023-03-04T19:12:12.931Z,102076.50
2023-03-04T19:14:41.029Z,102088.56
2023-03-04T19:17:08.822Z,102081.13
2023-03-04T19:19:37.356Z,102085.03
2023-03-04T19:22:06.925Z,102090.59
2023-03-04T19:24:34.812Z,102084.59
2023-03-04T19:27:02.802Z,102089.44
2023-03-04T19:29:30.888Z,102087.91
2023-03-04T19:31:58.840Z,102097.78
2023-03-04T19:34:26.926Z,102097.66
2023-03-04T19:36:54.831Z,102092.44
2023-03-04T19:39:24.087Z,102085.66
2023-03-04T19:41:51.926Z,102085.22
2023-03-04T19:44:19.852Z,102094.97
2023-03-04T19:46:47.806Z,102098.44
2023-03-04T19:49:15.659Z,102090.19
2023-03-04T19:51:43.695Z,102092.22
2023-03-04T19:54:11.608Z,102087.34
2023-03-04T19:56:40.991Z,102092.34
2023-03-04T19:59:09.991Z,102087.22
2023-03-04T20:01:38.640Z,102092.47
2023-03-04T20:04:09.384Z,102086.25
2023-03-04T20:06:38.446Z,102090.91
2023-03-04T20:09:07.160Z,102087.13
2023-03-04T20:11:41.498Z,102093.63
2023-03-04T20:14:20.093Z,102096.69
2023-03-04T20:16:48.087Z,102098.94
2023-03-04T20:19:16.071Z,102098.81
2023-03-04T20:21:43.861Z,102099.69
2023-03-04T20:24:11.867Z,102085.50
2023-03-04T20:26:40.050Z,102088.59
2023-03-04T20:29:07.812Z,102098.03
2023-03-04T20:31:38.845Z,102091.53
2023-03-04T20:34:08.439Z,102103.69
2023-03-04T20:36:38.526Z,102097.63
2023-03-04T20:39:18.319Z,102100.16
2023-03-04T20:41:55.301Z,102108.66
2023-03-04T20:44:23.232Z,102105.47
2023-03-04T20:46:53.550Z,102104.59
2023-03-04T20:49:24.106Z,102106.38
2023-03-04T20:51:53.177Z,102112.78
2023-03-04T20:54:21.360Z,102107.47
2023-03-04T20:56:49.589Z,102110.75
2023-03-04T20:59:18.200Z,102105.53
2023-03-04T21:01:47.894Z,102109.91
2023-03-04T21:04:17.798Z,102113.06
2023-03-04T21:06:47.444Z,102112.56
2023-03-04T21:09:18.245Z,102122.59
2023-03-04T21:11:46.391Z,102119.66
2023-03-04T21:14:16.620Z,102114.22
2023-03-04T21:16:44.653Z,102105.63
2023-03-04T21:19:18.329Z,102109.53
2023-03-04T21:21:47.422Z,102103.75
2023-03-04T21:24:16.717Z,102102.06
2023-03-04T21:26:47.386Z,102100.59
2023-03-04T21:29:16.172Z,102107.13
2023-03-04T21:31:46.696Z,102097.38
2023-03-04T21:34:19.967Z,102102.09
2023-03-04T21:36:47.969Z,102096.16
2023-03-04T21:39:17.846Z,102100.91
2023-03-04T21:41:46.298Z,102104.81
2023-03-04T21:44:22.986Z,102112.91
2023-03-04T21:46:57.037Z,102108.50
2023-03-04T21:49:27.127Z,102105.47
2023-03-04T21:51:55.274Z,102110.94
2023-03-04T21:54:23.267Z,102111.22
2023-03-04T21:56:51.211Z,102105.63
2023-03-04T21:59:19.399Z,102106.66
2023-03-04T22:01:47.298Z,102102.72
2023-03-04T22:04:15.343Z,102097.63
2023-03-04T22:06:44.509Z,102094.56
2023-03-04T22:09:13.296Z,102097.09
2023-03-04T22:11:41.402Z,102092.66
2023-03-04T22:14:09.280Z,102085.53
2023-03-04T22:16:48.798Z,102087.09
2023-03-04T22:19:22.313Z,102082.59
2023-03-04T22:21:52.373Z,102081.28
2023-03-04T22:24:20.950Z,102079.94
2023-03-04T22:26:48.854Z,102084.31
2023-03-04T22:29:16.744Z,102089.38
2023-03-04T22:31:44.738Z,102092.00
2023-03-04T22:34:14.881Z,102094.00
2023-03-04T22:36:44.678Z,102083.13
2023-03-04T22:39:16.289Z,102095.78
2023-03-04T22:41:44.408Z,102082.34
2023-03-04T22:44:14.130Z,102083.16
2023-03-04T22:46:42.596Z,102081.19
2023-03-04T22:49:12.928Z,102076.38
2023-03-04T22:51:42.398Z,102076.28
2023-03-04T22:54:13.974Z,102065.16
2023-03-04T22:56:41.907Z,102061.38
2023-03-04T22:59:09.789Z,102065.34
2023-03-04T23:01:37.763Z,102069.53
2023-03-04T23:04:06.039Z,102065.88
2023-03-04T23:06:33.819Z,102062.50
2023-03-04T23:09:01.943Z,102070.22
2023-03-04T23:11:35.177Z,102063.28
2023-03-04T23:14:06.820Z,102059.31
2023-03-04T23:16:37.442Z,102062.28
2023-03-04T23:19:05.860Z,102071.03
2023-03-04T23:21:34.667Z,102065.66
2023-03-04T23:24:03.812Z,102060.19
2023-03-04T23:26:35.971Z,102068.16
2023-03-04T23:29:06.091Z,102066.81
2023-03-04T23:31:35.730Z,102061.81
2023-03-04T23:34:05.293Z,102063.94
2023-03-04T23:36:34.932Z,102056.56
2023-03-04T23:39:04.291Z,102058.56
2023-03-04T23:41:34.565Z,102059.66
2023-03-04T23:44:03.116Z,102061.34
2023-03-04T23:46:31.220Z,102056.69
2023-03-04T23:48:59.414Z,102062.19
2023-03-04T23:51:30.017Z,102056.00
2023-03-04T23:53:58.183Z,102055.44
2023-03-04T23:56:28.707Z,102054.41
2023-03-04T23:58:59.304Z,102047.84
